createdAt,value
2018-06-02T00:00:41.350Z,0.00
2018-06-02T00:01:41.377Z,0.00
2018-06-02T00:02:41.404Z,0.00
2018-06-02T00:03:41.442Z,0.00
2018-06-02T00:04:41.460Z,0.00
2018-06-02T00:05:41.487Z,0.00
2018-06-02T00:06:41.515Z,4.00
2018-06-02T00:07:41.543Z,4.00
2018-06-02T00:08:41.570Z,4.00
2018-06-02T00:09:41.598Z,4.00
2018-06-02T00:10:41.633Z,4.00
2018-06-02T00:11:41.653Z,0.00
2018-06-02T00:12:41.681Z,0.00
2018-06-02T00:13:41.719Z,0.00
2018-06-02T00:14:41.736Z,0.00
2018-06-02T00:15:41.783Z,4.00
2018-06-02T00:16:41.834Z,4.00
2018-06-02T00:17:41.822Z,4.00
2018-06-02T00:18:41.849Z,4.00
2018-06-02T00:19:41.876Z,4.00
2018-06-02T00:20:41.902Z,4.00
2018-06-02T00:21:41.934Z,4.00
2018-06-02T00:22:41.958Z,8.00
2018-06-02T00:23:41.986Z,4.00
2018-06-02T00:24:42.029Z,4.00
2018-06-02T00:25:42.040Z,4.00
2018-06-02T00:26:42.069Z,4.00
2018-06-02T00:27:42.097Z,4.00
2018-06-02T00:28:42.125Z,8.00
2018-06-02T00:29:42.152Z,8.00
2018-06-02T00:30:42.179Z,8.00
2018-06-02T00:31:42.207Z,4.00
2018-06-02T00:32:42.234Z,4.00
2018-06-02T00:33:42.311Z,8.00
2018-06-02T00:34:42.290Z,8.00
2018-06-02T00:35:42.318Z,8.00
2018-06-02T00:36:42.345Z,8.00
2018-06-02T00:37:42.374Z,12.00
2018-06-02T00:38:42.401Z,8.00
2018-06-02T00:39:42.429Z,8.00
2018-06-02T00:40:42.456Z,8.00
2018-06-02T00:41:42.484Z,12.00
2018-06-02T00:42:42.512Z,12.00
2018-06-02T00:43:42.540Z,12.00
2018-06-02T00:44:42.567Z,12.00
2018-06-02T00:45:42.596Z,12.00
2018-06-02T00:46:42.622Z,12.00
2018-06-02T00:47:42.677Z,16.00
2018-06-02T00:48:42.677Z,12.00
2018-06-02T00:49:42.729Z,12.00
2018-06-02T00:50:42.733Z,16.00
2018-06-02T00:51:42.761Z,16.00
2018-06-02T00:52:42.788Z,16.00
2018-06-02T00:53:42.816Z,16.00
2018-06-02T00:54:42.844Z,16.00
2018-06-02T00:55:42.901Z,20.00
2018-06-02T00:56:42.899Z,20.00
2018-06-02T00:57:42.927Z,16.00
2018-06-02T00:58:42.959Z,20.00
2018-06-02T00:59:42.982Z,20.00
2018-06-02T01:00:43.013Z,20.00
2018-06-02T01:01:43.038Z,20.00
2018-06-02T01:02:43.066Z,24.00
2018-06-02T01:03:43.098Z,24.00
2018-06-02T01:04:43.123Z,20.00
2018-06-02T01:05:43.186Z,24.00
2018-06-02T01:06:43.177Z,28.00
2018-06-02T01:07:43.204Z,24.00
2018-06-02T01:08:43.231Z,28.00
2018-06-02T01:09:43.297Z,28.00
2018-06-02T01:10:43.287Z,28.00
2018-06-02T01:11:43.315Z,28.00
2018-06-02T01:12:43.378Z,28.00
2018-06-02T01:13:43.370Z,28.00
2018-06-02T01:14:43.398Z,28.00
2018-06-02T01:15:43.433Z,32.00
2018-06-02T01:16:43.456Z,28.00
2018-06-02T01:17:43.487Z,32.00
2018-06-02T01:18:43.509Z,36.00
2018-06-02T01:19:43.541Z,32.00
2018-06-02T01:20:43.595Z,36.00
2018-06-02T01:21:43.630Z,36.00
2018-06-02T01:22:43.619Z,36.00
2018-06-02T01:23:43.649Z,36.00
2018-06-02T01:24:43.674Z,40.00
2018-06-02T01:25:43.701Z,40.00
2018-06-02T01:26:43.730Z,44.00
2018-06-02T01:27:43.802Z,44.00
2018-06-02T01:28:43.785Z,44.00
2018-06-02T01:29:43.813Z,48.00
2018-06-02T01:30:43.841Z,48.00
2018-06-02T01:31:43.905Z,56.00
2018-06-02T01:32:43.933Z,52.00
2018-06-02T01:33:43.924Z,60.00
2018-06-02T01:34:43.952Z,60.00
2018-06-02T01:35:43.980Z,60.00
2018-06-02T01:36:44.006Z,64.00
2018-06-02T01:37:44.036Z,64.00
2018-06-02T01:38:44.062Z,68.00
2018-06-02T01:39:44.094Z,72.00
2018-06-02T01:40:44.117Z,68.00
2018-06-02T01:41:44.145Z,76.00
2018-06-02T01:42:44.174Z,72.00
2018-06-02T01:43:44.201Z,76.00
2018-06-02T01:44:44.228Z,80.00
2018-06-02T01:45:44.256Z,80.00
2018-06-02T01:46:44.284Z,84.00
2018-06-02T01:47:44.312Z,84.00
2018-06-02T01:48:44.339Z,88.00
2018-06-02T01:49:44.367Z,92.00
2018-06-02T01:50:44.394Z,92.00
2018-06-02T01:51:44.424Z,96.00
2018-06-02T01:52:44.456Z,100.00
2018-06-02T01:53:44.479Z,104.00
2018-06-02T01:54:44.508Z,108.00
2018-06-02T01:55:44.533Z,116.00
2018-06-02T01:56:44.561Z,116.00
2018-06-02T01:57:44.590Z,116.00
2018-06-02T01:58:44.616Z,116.00
2018-06-02T01:59:44.644Z,120.00
2018-06-02T02:00:44.671Z,128.00
2018-06-02T02:01:44.698Z,128.00
2018-06-02T02:02:44.727Z,132.00
2018-06-02T02:03:44.755Z,140.00
2018-06-02T02:04:44.782Z,144.00
2018-06-02T02:05:44.810Z,148.00
2018-06-02T02:06:44.838Z,156.00
2018-06-02T02:07:44.865Z,160.00
2018-06-02T02:08:44.892Z,164.00
2018-06-02T02:09:44.920Z,168.00
2018-06-02T02:10:44.955Z,172.00
2018-06-02T02:11:44.977Z,176.00
2018-06-02T02:12:45.003Z,180.00
2018-06-02T02:13:45.032Z,184.00
2018-06-02T02:14:45.062Z,192.00
2018-06-02T02:15:45.090Z,196.00
2018-06-02T02:16:45.117Z,200.00
2018-06-02T02:17:45.157Z,208.00
2018-06-02T02:18:45.170Z,224.00
2018-06-02T02:19:45.198Z,228.00
2018-06-02T02:20:45.225Z,236.00
2018-06-02T02:21:45.255Z,248.00
2018-06-02T02:22:45.280Z,260.00
2018-06-02T02:23:45.313Z,268.00
2018-06-02T02:24:45.335Z,276.00
2018-06-02T02:25:45.364Z,276.00
2018-06-02T02:26:45.391Z,296.00
2018-06-02T02:27:45.420Z,308.00
2018-06-02T02:28:45.446Z,316.00
2018-06-02T02:29:45.474Z,328.00
2018-06-02T02:30:45.502Z,328.00
2018-06-02T02:31:45.530Z,336.00
2018-06-02T02:32:45.558Z,368.00
2018-06-02T02:33:45.586Z,380.00
2018-06-02T02:34:45.613Z,420.00
2018-06-02T02:35:45.642Z,428.00
2018-06-02T02:36:45.669Z,424.00
2018-06-02T02:37:45.696Z,436.00
2018-06-02T02:38:45.724Z,448.00
2018-06-02T02:39:45.753Z,448.00
2018-06-02T02:40:45.796Z,476.00
2018-06-02T02:41:45.807Z,504.00
2018-06-02T02:42:45.838Z,528.00
2018-06-02T02:43:45.864Z,560.00
2018-06-02T02:44:45.890Z,608.00
2018-06-02T02:45:45.919Z,696.00
2018-06-02T02:46:45.946Z,880.00
2018-06-02T02:47:45.976Z,1112.00
2018-06-02T02:48:46.001Z,1180.00
2018-06-02T02:49:46.033Z,1160.00
2018-06-02T02:50:46.058Z,1188.00
2018-06-02T02:51:46.086Z,1252.00
2018-06-02T02:52:46.113Z,1292.00
2018-06-02T02:53:46.140Z,1308.00
2018-06-02T02:54:46.168Z,1340.00
2018-06-02T02:55:46.198Z,1372.00
2018-06-02T02:56:46.224Z,1404.00
2018-06-02T02:57:46.252Z,1440.00
2018-06-02T02:58:46.279Z,1472.00
2018-06-02T02:59:46.309Z,1492.00
2018-06-02T03:00:46.335Z,1500.00
2018-06-02T03:01:46.364Z,1512.00
2018-06-02T03:02:46.392Z,1532.00
2018-06-02T03:03:46.419Z,1548.00
2018-06-02T03:04:46.446Z,1568.00
2018-06-02T03:05:46.497Z,1572.00
2018-06-02T03:06:46.502Z,1580.00
2018-06-02T03:07:46.531Z,1540.00
2018-06-02T03:08:46.558Z,1608.00
2018-06-02T03:09:46.585Z,1616.00
2018-06-02T03:10:46.615Z,1640.00
2018-06-02T03:11:46.642Z,1580.00
2018-06-02T03:12:46.670Z,1536.00
2018-06-02T03:13:46.698Z,1684.00
2018-06-02T03:14:46.726Z,1764.00
2018-06-02T03:15:46.754Z,1792.00
2018-06-02T03:16:46.829Z,1812.00
2018-06-02T03:17:46.809Z,1812.00
2018-06-02T03:18:46.837Z,1744.00
2018-06-02T03:19:46.865Z,1404.00
2018-06-02T03:20:46.893Z,980.00
2018-06-02T03:21:46.924Z,844.00
2018-06-02T03:22:46.949Z,720.00
2018-06-02T03:23:46.980Z,652.00
2018-06-02T03:24:47.014Z,596.00
2018-06-02T03:25:47.033Z,580.00
2018-06-02T03:26:47.082Z,600.00
2018-06-02T03:27:47.093Z,584.00
2018-06-02T03:28:47.119Z,496.00
2018-06-02T03:29:47.144Z,460.00
2018-06-02T03:30:47.173Z,456.00
2018-06-02T03:31:47.206Z,464.00
2018-06-02T03:32:47.229Z,484.00
2018-06-02T03:33:47.284Z,524.00
2018-06-02T03:34:47.288Z,536.00
2018-06-02T03:35:47.313Z,528.00
2018-06-02T03:36:47.340Z,528.00
2018-06-02T03:37:47.368Z,544.00
2018-06-02T03:38:47.399Z,540.00
2018-06-02T03:39:47.425Z,588.00
2018-06-02T03:40:47.455Z,580.00
2018-06-02T03:41:47.480Z,536.00
2018-06-02T03:42:47.541Z,532.00
2018-06-02T03:43:47.536Z,536.00
2018-06-02T03:44:47.563Z,580.00
2018-06-02T03:45:47.592Z,620.00
2018-06-02T03:46:47.623Z,688.00
2018-06-02T03:47:47.649Z,688.00
2018-06-02T03:48:47.676Z,732.00
2018-06-02T03:49:47.707Z,812.00
2018-06-02T03:50:47.732Z,956.00
2018-06-02T03:51:47.760Z,1276.00
2018-06-02T03:52:47.793Z,1448.00
2018-06-02T03:53:47.815Z,1356.00
2018-06-02T03:54:47.862Z,1160.00
2018-06-02T03:55:47.872Z,1200.00
2018-06-02T03:56:47.900Z,1136.00
2018-06-02T03:57:47.928Z,1048.00
2018-06-02T03:58:47.957Z,1016.00
2018-06-02T03:59:47.985Z,1088.00
2018-06-02T04:00:48.012Z,1104.00
2018-06-02T04:01:48.074Z,1160.00
2018-06-02T04:02:48.069Z,1312.00
2018-06-02T04:03:48.138Z,1512.00
2018-06-02T04:04:48.124Z,1472.00
2018-06-02T04:05:48.152Z,1332.00
2018-06-02T04:06:48.184Z,1400.00
2018-06-02T04:07:48.228Z,1512.00
2018-06-02T04:08:48.236Z,1456.00
2018-06-02T04:09:48.264Z,1344.00
2018-06-02T04:10:48.293Z,1472.00
2018-06-02T04:11:48.321Z,1520.00
2018-06-02T04:12:48.348Z,1580.00
2018-06-02T04:13:48.377Z,1944.00
2018-06-02T04:14:48.407Z,2304.00
2018-06-02T04:15:48.478Z,2500.00
2018-06-02T04:16:48.461Z,2644.00
2018-06-02T04:17:48.520Z,2712.00
2018-06-02T04:18:48.517Z,2692.00
2018-06-02T04:19:48.545Z,2664.00
2018-06-02T04:20:48.579Z,2640.00
2018-06-02T04:21:48.601Z,2580.00
2018-06-02T04:22:48.630Z,1936.00
2018-06-02T04:23:48.699Z,1456.00
2018-06-02T04:24:48.685Z,1136.00
2018-06-02T04:25:48.714Z,932.00
2018-06-02T04:26:48.743Z,932.00
2018-06-02T04:27:48.783Z,912.00
2018-06-02T04:28:48.798Z,908.00
2018-06-02T04:29:48.827Z,940.00
2018-06-02T04:30:48.855Z,984.00
2018-06-02T04:31:48.883Z,1212.00
2018-06-02T04:32:48.912Z,1392.00
2018-06-02T04:33:48.940Z,1664.00
2018-06-02T04:34:48.968Z,1516.00
2018-06-02T04:35:48.999Z,1248.00
2018-06-02T04:36:49.024Z,1704.00
2018-06-02T04:37:49.075Z,2332.00
2018-06-02T04:38:49.082Z,2256.00
2018-06-02T04:39:49.109Z,1716.00
2018-06-02T04:40:49.137Z,1024.00
2018-06-02T04:41:49.193Z,704.00
2018-06-02T04:42:49.194Z,736.00
2018-06-02T04:43:49.223Z,976.00
2018-06-02T04:44:49.250Z,1268.00
2018-06-02T04:45:49.317Z,1192.00
2018-06-02T04:46:49.307Z,888.00
2018-06-02T04:47:49.335Z,644.00
2018-06-02T04:48:49.363Z,552.00
2018-06-02T04:49:49.391Z,468.00
2018-06-02T04:50:49.420Z,416.00
2018-06-02T04:51:49.448Z,400.00
2018-06-02T04:52:49.477Z,400.00
2018-06-02T04:53:49.504Z,396.00
2018-06-02T04:54:49.535Z,412.00
2018-06-02T04:55:49.561Z,448.00
2018-06-02T04:56:49.611Z,496.00
2018-06-02T04:57:49.618Z,548.00
2018-06-02T04:58:49.645Z,600.00
2018-06-02T04:59:49.674Z,644.00
2018-06-02T05:00:49.701Z,700.00
2018-06-02T05:01:49.730Z,788.00
2018-06-02T05:02:49.759Z,888.00
2018-06-02T05:03:49.803Z,972.00
2018-06-02T05:04:49.845Z,1240.00
2018-06-02T05:05:49.843Z,1560.00
2018-06-02T05:06:49.871Z,1616.00
2018-06-02T05:07:49.899Z,1596.00
2018-06-02T05:08:49.927Z,1572.00
2018-06-02T05:09:49.955Z,1572.00
2018-06-02T05:10:49.983Z,1560.00
2018-06-02T05:11:50.013Z,1544.00
2018-06-02T05:12:50.043Z,1524.00
2018-06-02T05:13:50.068Z,1496.00
2018-06-02T05:14:50.097Z,1476.00
2018-06-02T05:15:50.126Z,1464.00
2018-06-02T05:16:50.154Z,1436.00
2018-06-02T05:17:50.181Z,1428.00
2018-06-02T05:18:50.210Z,1392.00
2018-06-02T05:19:50.238Z,1376.00
2018-06-02T05:20:50.269Z,1356.00
2018-06-02T05:21:50.293Z,1332.00
2018-06-02T05:22:50.322Z,1312.00
2018-06-02T05:23:50.353Z,1280.00
2018-06-02T05:24:50.377Z,1260.00
2018-06-02T05:25:50.405Z,1232.00
2018-06-02T05:26:50.435Z,1212.00
2018-06-02T05:27:50.473Z,1204.00
2018-06-02T05:28:50.490Z,1192.00
2018-06-02T05:29:50.519Z,1180.00
2018-06-02T05:30:50.549Z,1160.00
2018-06-02T05:31:50.575Z,1136.00
2018-06-02T05:32:50.603Z,1112.00
2018-06-02T05:33:50.668Z,1084.00
2018-06-02T05:34:50.660Z,1052.00
2018-06-02T05:35:50.691Z,1016.00
2018-06-02T05:36:50.716Z,984.00
2018-06-02T05:37:50.743Z,948.00
2018-06-02T05:38:50.772Z,924.00
2018-06-02T05:39:50.801Z,852.00
2018-06-02T05:40:50.832Z,688.00
2018-06-02T05:41:50.859Z,492.00
2018-06-02T05:42:50.887Z,424.00
2018-06-02T05:43:50.954Z,420.00
2018-06-02T05:44:50.944Z,440.00
2018-06-02T05:45:51.011Z,448.00
2018-06-02T05:46:50.997Z,468.00
2018-06-02T05:47:51.026Z,476.00
2018-06-02T05:48:51.055Z,476.00
2018-06-02T05:49:51.082Z,488.00
2018-06-02T05:50:51.109Z,472.00
2018-06-02T05:51:51.149Z,480.00
2018-06-02T05:52:51.166Z,484.00
2018-06-02T05:53:51.194Z,464.00
2018-06-02T05:54:51.222Z,460.00
2018-06-02T05:55:51.251Z,460.00
2018-06-02T05:56:51.279Z,456.00
2018-06-02T05:57:51.313Z,472.00
2018-06-02T05:58:51.335Z,508.00
2018-06-02T05:59:51.366Z,520.00
2018-06-02T06:00:51.390Z,544.00
2018-06-02T06:01:51.419Z,592.00
2018-06-02T06:02:51.447Z,624.00
2018-06-02T06:03:51.478Z,648.00
2018-06-02T06:04:51.503Z,652.00
2018-06-02T06:05:51.535Z,684.00
2018-06-02T06:06:51.564Z,692.00
2018-06-02T06:07:51.589Z,688.00
2018-06-02T06:08:51.616Z,672.00
2018-06-02T06:09:51.648Z,660.00
2018-06-02T06:10:51.673Z,644.00
2018-06-02T06:11:51.701Z,632.00
2018-06-02T06:12:51.730Z,616.00
2018-06-02T06:13:51.784Z,604.00
2018-06-02T06:14:51.786Z,596.00
2018-06-02T06:15:51.814Z,584.00
2018-06-02T06:16:51.841Z,576.00
2018-06-02T06:17:51.869Z,564.00
2018-06-02T06:18:51.898Z,552.00
2018-06-02T06:19:51.934Z,548.00
2018-06-02T06:20:51.954Z,540.00
2018-06-02T06:21:51.983Z,528.00
2018-06-02T06:22:52.012Z,520.00
2018-06-02T06:23:52.040Z,512.00
2018-06-02T06:24:52.067Z,504.00
2018-06-02T06:25:52.096Z,492.00
2018-06-02T06:26:52.169Z,484.00
2018-06-02T06:27:52.154Z,480.00
2018-06-02T06:28:52.181Z,468.00
2018-06-02T06:29:52.208Z,464.00
2018-06-02T06:30:52.236Z,456.00
2018-06-02T06:31:52.265Z,448.00
2018-06-02T06:32:52.293Z,436.00
2018-06-02T06:33:52.320Z,428.00
2018-06-02T06:34:52.353Z,424.00
2018-06-02T06:35:52.378Z,416.00
2018-06-02T06:36:52.405Z,408.00
2018-06-02T06:37:52.434Z,400.00
2018-06-02T06:38:52.488Z,396.00
2018-06-02T06:39:52.490Z,388.00
2018-06-02T06:40:52.524Z,376.00
2018-06-02T06:41:52.547Z,372.00
2018-06-02T06:42:52.575Z,364.00
2018-06-02T06:43:52.604Z,360.00
2018-06-02T06:44:52.662Z,352.00
2018-06-02T06:45:52.699Z,344.00
2018-06-02T06:46:52.688Z,336.00
2018-06-02T06:47:52.715Z,332.00
2018-06-02T06:48:52.743Z,324.00
2018-06-02T06:49:52.802Z,316.00
2018-06-02T06:50:52.801Z,312.00
2018-06-02T06:51:52.829Z,304.00
2018-06-02T06:52:52.857Z,296.00
2018-06-02T06:53:52.885Z,296.00
2018-06-02T06:54:52.914Z,288.00
2018-06-02T06:55:52.942Z,284.00
2018-06-02T06:56:52.997Z,276.00
2018-06-02T06:57:52.998Z,272.00
2018-06-02T06:58:53.027Z,268.00
2018-06-02T06:59:53.059Z,264.00
2018-06-02T07:00:53.082Z,260.00
2018-06-02T07:01:53.112Z,260.00
2018-06-02T07:02:53.139Z,252.00
2018-06-02T07:03:53.168Z,252.00
2018-06-02T07:04:53.195Z,248.00
2018-06-02T07:05:53.227Z,248.00
2018-06-02T07:06:53.254Z,244.00
2018-06-02T07:07:53.304Z,244.00
2018-06-02T07:08:53.320Z,244.00
2018-06-02T07:09:53.336Z,240.00
2018-06-02T07:10:53.365Z,240.00
2018-06-02T07:11:53.510Z,240.00
2018-06-02T07:12:53.421Z,236.00
2018-06-02T07:13:53.449Z,236.00
2018-06-02T07:14:53.478Z,240.00
2018-06-02T07:15:53.507Z,236.00
2018-06-02T07:16:53.538Z,236.00
2018-06-02T07:17:53.610Z,236.00
2018-06-02T07:18:53.592Z,236.00
2018-06-02T07:19:53.618Z,240.00
2018-06-02T07:20:53.650Z,240.00
2018-06-02T07:21:53.678Z,240.00
2018-06-02T07:22:53.703Z,236.00
2018-06-02T07:23:53.731Z,236.00
2018-06-02T07:24:53.787Z,236.00
2018-06-02T07:25:53.787Z,232.00
2018-06-02T07:26:53.816Z,232.00
2018-06-02T07:27:53.844Z,228.00
2018-06-02T07:28:53.872Z,228.00
2018-06-02T07:29:53.904Z,232.00
2018-06-02T07:30:53.942Z,228.00
2018-06-02T07:31:53.958Z,224.00
2018-06-02T07:32:53.985Z,220.00
2018-06-02T07:33:54.013Z,220.00
2018-06-02T07:34:54.045Z,216.00
2018-06-02T07:35:54.070Z,212.00
2018-06-02T07:36:54.151Z,216.00
2018-06-02T07:37:54.127Z,216.00
2018-06-02T07:38:54.171Z,216.00
2018-06-02T07:39:54.189Z,216.00
2018-06-02T07:40:54.211Z,212.00
2018-06-02T07:41:54.247Z,216.00
2018-06-02T07:42:54.267Z,212.00
2018-06-02T07:43:54.296Z,216.00
2018-06-02T07:44:54.356Z,212.00
2018-06-02T07:45:54.351Z,216.00
2018-06-02T07:46:54.380Z,216.00
2018-06-02T07:47:54.410Z,212.00
2018-06-02T07:48:54.436Z,216.00
2018-06-02T07:49:54.547Z,216.00
2018-06-02T07:50:54.493Z,216.00
2018-06-02T07:51:54.521Z,216.00
2018-06-02T07:52:54.549Z,216.00
2018-06-02T07:53:54.577Z,216.00
2018-06-02T07:54:54.606Z,216.00
2018-06-02T07:55:54.634Z,216.00
2018-06-02T07:56:54.662Z,216.00
2018-06-02T07:57:54.690Z,216.00
2018-06-02T07:58:54.719Z,216.00
2018-06-02T07:59:54.748Z,216.00
2018-06-02T08:00:54.775Z,216.00
2018-06-02T08:01:54.808Z,220.00
2018-06-02T08:02:54.832Z,188.00
2018-06-02T08:03:54.876Z,212.00
2018-06-02T08:04:54.887Z,224.00
2018-06-02T08:05:54.916Z,168.00
2018-06-02T08:06:54.981Z,228.00
2018-06-02T08:07:54.975Z,228.00
2018-06-02T08:08:55.001Z,228.00
2018-06-02T08:09:55.031Z,224.00
2018-06-02T08:10:55.058Z,232.00
2018-06-02T08:11:55.086Z,236.00
2018-06-02T08:12:55.114Z,216.00
2018-06-02T08:13:55.184Z,244.00
2018-06-02T08:14:55.171Z,228.00
2018-06-02T08:15:55.200Z,252.00
2018-06-02T08:16:55.226Z,256.00
2018-06-02T08:17:55.255Z,264.00
2018-06-02T08:18:55.283Z,272.00
2018-06-02T08:19:55.314Z,280.00
2018-06-02T08:20:55.341Z,288.00
2018-06-02T08:21:55.367Z,296.00
2018-06-02T08:22:55.396Z,312.00
2018-06-02T08:23:55.427Z,324.00
2018-06-02T08:24:55.453Z,344.00
2018-06-02T08:25:55.483Z,356.00
2018-06-02T08:26:55.509Z,276.00
2018-06-02T08:27:55.538Z,316.00
2018-06-02T08:28:55.565Z,248.00
2018-06-02T08:29:55.594Z,312.00
2018-06-02T08:30:55.662Z,220.00
2018-06-02T08:31:55.651Z,200.00
2018-06-02T08:32:55.678Z,212.00
2018-06-02T08:33:55.706Z,200.00
2018-06-02T08:34:55.735Z,256.00
2018-06-02T08:35:55.762Z,252.00
2018-06-02T08:36:55.826Z,252.00
2018-06-02T08:37:55.820Z,256.00
2018-06-02T08:38:55.869Z,252.00
2018-06-02T08:39:55.875Z,248.00
2018-06-02T08:40:55.904Z,248.00
2018-06-02T08:41:55.932Z,252.00
2018-06-02T08:42:55.964Z,204.00
2018-06-02T08:43:56.037Z,252.00
2018-06-02T08:44:56.017Z,240.00
2018-06-02T08:45:56.044Z,212.00
2018-06-02T08:46:56.075Z,184.00
2018-06-02T08:47:56.108Z,184.00
2018-06-02T08:48:56.163Z,176.00
2018-06-02T08:49:56.160Z,272.00
2018-06-02T08:50:56.186Z,192.00
2018-06-02T08:51:56.216Z,260.00
2018-06-02T08:52:56.244Z,272.00
2018-06-02T08:53:56.272Z,264.00
2018-06-02T08:54:56.299Z,264.00
2018-06-02T08:55:56.328Z,264.00
2018-06-02T08:56:56.383Z,268.00
2018-06-02T08:57:56.385Z,272.00
2018-06-02T08:58:56.413Z,276.00
2018-06-02T08:59:56.442Z,288.00
2018-06-02T09:00:56.482Z,292.00
2018-06-02T09:01:56.498Z,304.00
2018-06-02T09:02:56.527Z,308.00
2018-06-02T09:03:56.557Z,308.00
2018-06-02T09:04:56.585Z,304.00
2018-06-02T09:05:56.611Z,312.00
2018-06-02T09:06:56.640Z,320.00
2018-06-02T09:07:56.670Z,324.00
2018-06-02T09:08:56.697Z,324.00
2018-06-02T09:09:56.725Z,320.00
2018-06-02T09:10:56.755Z,228.00
2018-06-02T09:11:56.783Z,216.00
2018-06-02T09:12:56.811Z,208.00
2018-06-02T09:13:56.840Z,208.00
2018-06-02T09:14:56.868Z,224.00
2018-06-02T09:15:56.899Z,320.00
2018-06-02T09:16:56.927Z,332.00
2018-06-02T09:17:56.953Z,340.00
2018-06-02T09:18:57.008Z,348.00
2018-06-02T09:19:57.011Z,260.00
2018-06-02T09:20:57.039Z,260.00
2018-06-02T09:21:57.069Z,252.00
2018-06-02T09:22:57.096Z,240.00
2018-06-02T09:23:57.125Z,228.00
2018-06-02T09:24:57.155Z,312.00
2018-06-02T09:25:57.182Z,220.00
2018-06-02T09:26:57.209Z,288.00
2018-06-02T09:27:57.327Z,184.00
2018-06-02T09:28:57.266Z,172.00
2018-06-02T09:29:57.295Z,176.00
2018-06-02T09:30:57.324Z,152.00
2018-06-02T09:31:57.352Z,144.00
2018-06-02T09:32:57.385Z,204.00
2018-06-02T09:33:57.409Z,244.00
2018-06-02T09:34:57.451Z,144.00
2018-06-02T09:35:57.467Z,188.00
2018-06-02T09:36:57.530Z,140.00
2018-06-02T09:37:57.523Z,184.00
2018-06-02T09:38:57.551Z,256.00
2018-06-02T09:39:57.611Z,260.00
2018-06-02T09:40:57.632Z,200.00
2018-06-02T09:41:57.638Z,260.00
2018-06-02T09:42:57.665Z,288.00
2018-06-02T09:43:57.695Z,304.00
2018-06-02T09:44:57.753Z,316.00
2018-06-02T09:45:57.765Z,328.00
2018-06-02T09:46:57.781Z,340.00
2018-06-02T09:47:57.814Z,348.00
2018-06-02T09:48:57.843Z,348.00
2018-06-02T09:49:57.866Z,336.00
2018-06-02T09:50:57.895Z,320.00
2018-06-02T09:51:57.923Z,312.00
2018-06-02T09:52:57.951Z,300.00
2018-06-02T09:53:57.980Z,292.00
2018-06-02T09:54:58.009Z,228.00
2018-06-02T09:55:58.070Z,168.00
2018-06-02T09:56:58.065Z,192.00
2018-06-02T09:57:58.094Z,260.00
2018-06-02T09:58:58.123Z,264.00
2018-06-02T09:59:58.165Z,268.00
2018-06-02T10:00:58.200Z,272.00
2018-06-02T10:01:58.215Z,276.00
2018-06-02T10:02:58.237Z,280.00
2018-06-02T10:03:58.266Z,280.00
2018-06-02T10:04:58.292Z,284.00
2018-06-02T10:05:58.341Z,284.00
2018-06-02T10:06:58.382Z,284.00
2018-06-02T10:07:58.379Z,280.00
2018-06-02T10:08:58.437Z,244.00
2018-06-02T10:09:58.436Z,168.00
2018-06-02T10:10:58.471Z,168.00
2018-06-02T10:11:58.494Z,168.00
2018-06-02T10:12:58.535Z,180.00
2018-06-02T10:13:58.550Z,184.00
2018-06-02T10:14:58.579Z,188.00
2018-06-02T10:15:58.608Z,192.00
2018-06-02T10:16:58.636Z,308.00
2018-06-02T10:17:58.665Z,308.00
2018-06-02T10:18:58.693Z,312.00
2018-06-02T10:19:58.722Z,320.00
2018-06-02T10:20:58.749Z,324.00
2018-06-02T10:21:58.778Z,332.00
2018-06-02T10:22:58.807Z,328.00
2018-06-02T10:23:58.841Z,332.00
2018-06-02T10:24:58.864Z,336.00
2018-06-02T10:25:58.893Z,336.00
2018-06-02T10:26:58.921Z,344.00
2018-06-02T10:27:58.949Z,360.00
2018-06-02T10:28:58.977Z,364.00
2018-06-02T10:29:59.006Z,372.00
2018-06-02T10:30:59.053Z,368.00
2018-06-02T10:31:59.063Z,356.00
2018-06-02T10:32:59.092Z,352.00
2018-06-02T10:33:59.120Z,340.00
2018-06-02T10:34:59.148Z,332.00
2018-06-02T10:35:59.178Z,324.00
2018-06-02T10:36:59.206Z,308.00
2018-06-02T10:37:59.234Z,304.00
2018-06-02T10:38:59.288Z,280.00
2018-06-02T10:39:59.291Z,292.00
2018-06-02T10:40:59.318Z,292.00
2018-06-02T10:41:59.347Z,192.00
2018-06-02T10:42:59.377Z,284.00
2018-06-02T10:43:59.406Z,188.00
2018-06-02T10:44:59.433Z,284.00
2018-06-02T10:45:59.463Z,196.00
2018-06-02T10:46:59.491Z,284.00
2018-06-02T10:47:59.520Z,280.00
2018-06-02T10:48:59.551Z,284.00
2018-06-02T10:49:59.578Z,288.00
2018-06-02T10:50:59.605Z,292.00
2018-06-02T10:51:59.634Z,296.00
2018-06-02T10:52:59.661Z,292.00
2018-06-02T10:53:59.690Z,292.00
2018-06-02T10:54:59.718Z,296.00
2018-06-02T10:55:59.748Z,296.00
2018-06-02T10:56:59.775Z,304.00
2018-06-02T10:57:59.804Z,308.00
2018-06-02T10:58:59.834Z,316.00
2018-06-02T10:59:59.860Z,320.00
2018-06-02T11:00:59.891Z,328.00
2018-06-02T11:01:59.920Z,280.00
2018-06-02T11:02:59.950Z,244.00
2018-06-02T11:03:59.975Z,236.00
2018-06-02T11:05:00.003Z,296.00
2018-06-02T11:06:00.048Z,232.00
2018-06-02T11:07:00.060Z,288.00
2018-06-02T11:08:00.128Z,316.00
2018-06-02T11:09:00.128Z,316.00
2018-06-02T11:10:00.147Z,312.00
2018-06-02T11:11:00.174Z,312.00
2018-06-02T11:12:00.203Z,312.00
2018-06-02T11:13:00.233Z,312.00
2018-06-02T11:14:00.262Z,316.00
2018-06-02T11:15:00.292Z,308.00
2018-06-02T11:16:00.318Z,224.00
2018-06-02T11:17:00.350Z,300.00
2018-06-02T11:18:00.374Z,304.00
2018-06-02T11:19:00.472Z,300.00
2018-06-02T11:20:00.431Z,304.00
2018-06-02T11:21:00.458Z,296.00
2018-06-02T11:22:00.488Z,220.00
2018-06-02T11:23:00.543Z,296.00
2018-06-02T11:24:00.545Z,228.00
2018-06-02T11:25:00.573Z,284.00
2018-06-02T11:26:00.602Z,276.00
2018-06-02T11:27:00.631Z,276.00
2018-06-02T11:28:00.659Z,272.00
2018-06-02T11:29:00.694Z,276.00
2018-06-02T11:30:00.715Z,284.00
2018-06-02T11:31:00.744Z,292.00
2018-06-02T11:32:00.772Z,300.00
2018-06-02T11:33:00.800Z,308.00
2018-06-02T11:34:00.829Z,236.00
2018-06-02T11:35:00.858Z,224.00
2018-06-02T11:36:00.886Z,228.00
2018-06-02T11:37:00.914Z,248.00
2018-06-02T11:38:00.943Z,308.00
2018-06-02T11:39:00.971Z,220.00
2018-06-02T11:40:01.001Z,212.00
2018-06-02T11:41:01.063Z,204.00
2018-06-02T11:42:01.065Z,200.00
2018-06-02T11:43:01.111Z,184.00
2018-06-02T11:44:01.170Z,180.00
2018-06-02T11:45:01.142Z,168.00
2018-06-02T11:46:01.175Z,252.00
2018-06-02T11:47:01.200Z,192.00
2018-06-02T11:48:01.228Z,248.00
2018-06-02T11:49:01.257Z,248.00
2018-06-02T11:50:01.289Z,252.00
2018-06-02T11:51:01.351Z,164.00
2018-06-02T11:52:01.342Z,180.00
2018-06-02T11:53:01.375Z,168.00
2018-06-02T11:54:01.415Z,160.00
2018-06-02T11:55:01.428Z,168.00
2018-06-02T11:56:01.456Z,168.00
2018-06-02T11:57:01.485Z,176.00
2018-06-02T11:58:01.514Z,172.00
2018-06-02T11:59:01.573Z,172.00
2018-06-02T12:00:01.591Z,176.00
2018-06-02T12:01:01.652Z,240.00
2018-06-02T12:02:01.631Z,256.00
2018-06-02T12:03:01.656Z,260.00
2018-06-02T12:04:01.684Z,264.00
2018-06-02T12:05:01.713Z,264.00
2018-06-02T12:06:01.741Z,260.00
2018-06-02T12:07:01.826Z,256.00
2018-06-02T12:08:01.798Z,252.00
2018-06-02T12:09:01.826Z,248.00
2018-06-02T12:10:01.855Z,168.00
2018-06-02T12:11:01.884Z,168.00
2018-06-02T12:12:01.916Z,164.00
2018-06-02T12:13:01.942Z,192.00
2018-06-02T12:14:02.006Z,160.00
2018-06-02T12:15:01.998Z,160.00
2018-06-02T12:16:02.029Z,160.00
2018-06-02T12:17:02.054Z,172.00
2018-06-02T12:18:02.086Z,252.00
2018-06-02T12:19:02.112Z,260.00
2018-06-02T12:20:02.147Z,264.00
2018-06-02T12:21:02.168Z,260.00
2018-06-02T12:22:02.197Z,264.00
2018-06-02T12:23:02.228Z,260.00
2018-06-02T12:24:02.255Z,260.00
2018-06-02T12:25:02.283Z,260.00
2018-06-02T12:26:02.311Z,260.00
2018-06-02T12:27:02.376Z,260.00
2018-06-02T12:28:02.377Z,252.00
2018-06-02T12:29:02.396Z,248.00
2018-06-02T12:30:02.425Z,248.00